Time;durP1;ratioP1;P1;durP2;ratioP2;P2;SDS_P1;SDS_P2;PMS_P1;PMS_P2;Temp;Humidity;BMP_temperature;BMP_pressure;BME280_temperature;BME280_humidity;BME280_pressure;Samples;Min_cycle;Max_cycle;Signal;HPM_P1;HPM_P2
2022/12/13 00:00:20;;;;;;;31.36;20.84;;;;;;;-7.29;100.00;101183.41;1026880;28;20636;-83
2022/12/13 00:00:51;;;;;;;43.56;22.32;;;;;;;-7.28;100.00;101181.66;1020579;29;20130;-83
2022/12/13 00:01:25;;;;;;;30.60;21.14;;;;;;;-7.28;100.00;101187.66;1023390;29;20047;-83
2022/12/13 00:01:56;;;;;;;30.00;19.72;;;;;;;-7.30;100.00;101179.16;1018994;29;20063;-83
2022/12/13 00:02:28;;;;;;;30.42;19.85;;;;;;;-7.29;100.00;101178.25;1015996;29;20044;-82
2022/12/13 00:03:00;;;;;;;35.62;22.96;;;;;;;-7.30;100.00;101181.75;1012285;29;20667;-83
2022/12/13 00:03:31;;;;;;;31.30;21.32;;;;;;;-7.29;100.00;101178.25;1012683;29;20127;-82
2022/12/13 00:04:05;;;;;;;36.16;22.04;;;;;;;-7.30;100.00;101178.34;1015423;29;20491;-82
2022/12/13 00:04:36;;;;;;;32.94;19.94;;;;;;;-7.32;100.00;101175.84;1016877;29;20538;-83
2022/12/13 00:05:08;;;;;;;42.26;21.16;;;;;;;-7.36;100.00;101176.97;1019832;29;20135;-83
2022/12/13 00:05:43;;;;;;;31.94;20.74;;;;;;;-7.37;100.00;101175.31;1016192;29;20143;-83
2022/12/13 00:06:15;;;;;;;33.98;20.52;;;;;;;-7.32;100.00;101173.25;1015989;29;20411;-83
2022/12/13 00:06:47;;;;;;;37.50;21.56;;;;;;;-7.30;100.00;101176.59;1016601;29;20207;-83
2022/12/13 00:07:19;;;;;;;31.80;21.38;;;;;;;-7.31;100.00;101182.69;1016802;29;20048;-83
2022/12/13 00:07:50;;;;;;;27.80;20.12;;;;;;;-7.30;100.00;101175.75;1016858;29;20630;-83
2022/12/13 00:08:22;;;;;;;37.82;22.38;;;;;;;-7.30;100.00;101179.16;1023461;29;20039;-83
2022/12/13 00:08:54;;;;;;;34.34;21.76;;;;;;;-7.27;100.00;101175.56;1019902;29;20044;-83
2022/12/13 00:09:25;;;;;;;32.40;23.70;;;;;;;-7.26;100.00;101178.06;1023464;29;20182;-83
2022/12/13 00:09:57;;;;;;;30.36;20.04;;;;;;;-7.27;100.00;101171.22;1019644;29;20118;-83
2022/12/13 00:10:28;;;;;;;28.76;21.04;;;;;;;-7.21;100.00;101176.00;1016651;29;20123;-83
2022/12/13 00:11:01;;;;;;;34.62;21.30;;;;;;;-7.19;100.00;101170.75;1018940;29;20134;-83
2022/12/13 00:11:33;;;;;;;30.98;19.72;;;;;;;-7.18;100.00;101168.06;1019341;29;20044;-83
2022/12/13 00:12:04;;;;;;;32.92;20.48;;;;;;;-7.20;100.00;101177.69;1018346;29;20131;-83
2022/12/13 00:12:36;;;;;;;35.84;20.60;;;;;;;-7.21;100.00;101170.84;1024021;28;20473;-83
2022/12/13 00:13:08;;;;;;;32.02;19.98;;;;;;;-7.16;100.00;101170.53;1019788;29;20131;-82
2022/12/13 00:13:40;;;;;;;38.22;22.36;;;;;;;-7.09;100.00;101171.03;1020108;29;20043;-83
2022/12/13 00:14:12;;;;;;;32.24;21.22;;;;;;;-7.03;100.00;101173.22;1023551;28;20059;-82
2022/12/13 00:14:44;;;;;;;29.00;19.27;;;;;;;-7.04;100.00;101176.75;1024185;28;20126;-83
2022/12/13 00:15:16;;;;;;;30.30;19.64;;;;;;;-7.10;100.00;101166.78;1019898;28;20303;-82
2022/12/13 00:15:58;;;;;;;30.72;20.96;;;;;;;-7.07;100.00;101171.75;1016050;29;20611;-82
2022/12/13 00:16:29;;;;;;;35.94;21.60;;;;;;;-7.05;100.00;101172.50;1014721;29;20120;-82
2022/12/13 00:17:01;;;;;;;32.02;21.16;;;;;;;-6.98;100.00;101172.00;1016983;29;20051;-83
2022/12/13 00:17:33;;;;;;;31.58;21.66;;;;;;;-7.01;100.00;101177.38;1019667;29;20059;-83
2022/12/13 00:18:05;;;;;;;38.48;20.06;;;;;;;-7.01;100.00;101172.19;1020268;29;20118;-82
2022/12/13 00:18:37;;;;;;;28.38;19.94;;;;;;;-7.05;100.00;101164.72;1024329;28;20129;-82
2022/12/13 00:19:08;;;;;;;30.18;20.28;;;;;;;-7.06;100.00;101170.84;1027797;28;20276;-82
2022/12/13 00:19:40;;;;;;;30.14;22.00;;;;;;;-7.07;100.00;101161.41;1024138;28;20042;-83
2022/12/13 00:20:11;;;;;;;32.68;20.54;;;;;;;-6.95;100.00;101165.81;1027608;28;20138;-82
2022/12/13 00:20:43;;;;;;;30.82;20.50;;;;;;;-7.03;100.00;101158.53;1027551;28;20382;-82
2022/12/13 00:21:17;;;;;;;31.28;20.06;;;;;;;-7.03;100.00;101168.06;1023266;29;20147;-83
2022/12/13 00:21:49;;;;;;;29.66;19.02;;;;;;;-6.93;100.00;101161.34;1015950;29;20081;-82
2022/12/13 00:22:20;;;;;;;32.66;19.70;;;;;;;-6.99;100.00;101161.75;1015594;29;20040;-83
2022/12/13 00:22:52;;;;;;;26.54;18.90;;;;;;;-7.04;100.00;101156.03;1019855;29;20457;-83
2022/12/13 00:23:23;;;;;;;34.76;20.88;;;;;;;-7.09;100.00;101163.25;1017104;29;20490;-83
2022/12/13 00:23:55;;;;;;;36.98;22.78;;;;;;;-7.20;100.00;101162.16;1019881;29;20047;-82
2022/12/13 00:24:27;;;;;;;31.88;21.26;;;;;;;-7.17;100.00;101161.13;1019747;29;20634;-82
2022/12/13 00:24:58;;;;;;;35.36;21.76;;;;;;;-7.24;100.00;101154.66;1016515;29;20085;-82
2022/12/13 00:25:32;;;;;;;31.32;21.08;;;;;;;-7.31;100.00;101158.56;1019949;29;20179;-82
2022/12/13 00:26:10;;;;;;;31.82;20.96;;;;;;;-7.32;100.00;101159.50;1024130;28;20050;-82
2022/12/13 00:26:42;;;;;;;28.58;19.36;;;;;;;-7.34;100.00;101159.59;1025182;28;20126;-83
2022/12/13 00:27:13;;;;;;;26.94;18.76;;;;;;;-7.35;100.00;101160.50;1019874;29;20134;-82
2022/12/13 00:27:45;;;;;;;31.33;21.05;;;;;;;-7.36;100.00;101163.19;1019899;28;20043;-82
2022/12/13 00:28:17;;;;;;;29.54;19.80;;;;;;;-7.37;100.00;101159.78;1015459;29;20379;-82
2022/12/13 00:28:50;;;;;;;31.70;21.22;;;;;;;-7.21;100.00;101157.91;1018410;29;20667;-82
2022/12/13 00:29:21;;;;;;;30.68;19.86;;;;;;;-7.15;100.00;101159.25;1019716;29;20502;-82
2022/12/13 00:29:53;;;;;;;28.90;18.28;;;;;;;-7.12;100.00;101160.84;1019031;29;20430;-82
2022/12/13 00:30:24;;;;;;;32.36;18.38;;;;;;;-7.09;100.00;101163.25;1020446;29;20513;-82
2022/12/13 00:30:58;;;;;;;28.12;19.38;;;;;;;-7.06;100.00;101153.53;1023274;29;20043;-82
2022/12/13 00:31:49;;;;;;;33.04;20.74;;;;;;;-6.99;100.00;101159.16;1025069;28;20126;-82
2022/12/13 00:32:30;;;;;;;;;;;;;;;-6.94;100.00;101162.28;1028231;28;20047;-82
2022/12/13 00:33:01;;;;;;;;;;;;;;;-6.90;100.00;101162.00;1024196;29;19922;-82
2022/12/13 00:33:33;;;;;;;26.66;17.94;;;;;;;-6.88;100.00;101156.72;1023646;29;19946;-82
2022/12/13 00:34:05;;;;;;;28.04;20.74;;;;;;;-6.90;100.00;101155.97;1019723;29;20048;-82
2022/12/13 00:34:36;;;;;;;30.92;20.76;;;;;;;-6.93;100.00;101157.00;1020029;29;20051;-82
2022/12/13 00:35:08;;;;;;;31.58;21.50;;;;;;;-6.96;100.00;101164.97;1023376;29;20047;-82
2022/12/13 00:35:40;;;;;;;31.32;21.22;;;;;;;-7.00;100.00;101167.84;1023811;28;20117;-82
2022/12/13 00:36:12;;;;;;;31.80;20.78;;;;;;;-7.04;100.00;101158.63;1023408;28;20549;-82
2022/12/13 00:36:44;;;;;;;43.50;22.00;;;;;;;-7.09;100.00;101163.25;1019418;29;20123;-82
2022/12/13 00:37:15;;;;;;;32.30;22.54;;;;;;;-7.11;100.00;101159.94;1019705;29;20047;-82
2022/12/13 00:37:47;;;;;;;32.98;21.96;;;;;;;-7.19;100.00;101162.97;1020134;29;20115;-82
2022/12/13 00:38:19;;;;;;;33.64;21.50;;;;;;;-7.25;100.00;101159.00;1019990;29;20043;-82
2022/12/13 00:38:59;;;;;;;36.78;22.12;;;;;;;-7.29;100.00;101156.72;1015539;29;20059;-82
2022/12/13 00:39:31;;;;;;;33.35;21.00;;;;;;;-7.34;100.00;101167.34;1016862;29;20118;-82
2022/12/13 00:40:03;;;;;;;32.36;19.82;;;;;;;-7.48;100.00;101157.81;1020909;29;20052;-82
2022/12/13 00:40:34;;;;;;;30.90;20.72;;;;;;;-7.47;100.00;101161.25;1022473;28;20103;-82
2022/12/13 00:41:18;;;;;;;34.26;22.70;;;;;;;-7.44;100.00;101167.97;1022744;28;20505;-82
2022/12/13 00:41:49;;;;;;;38.10;23.00;;;;;;;-7.45;100.00;101150.78;1019503;29;20054;-82
2022/12/13 00:42:21;;;;;;;30.44;20.84;;;;;;;-7.47;100.00;101156.06;1023293;29;20130;-82
2022/12/13 00:42:52;;;;;;;36.48;23.64;;;;;;;-7.48;100.00;101154.41;1021743;29;20560;-82
2022/12/13 00:43:24;;;;;;;34.90;23.12;;;;;;;-7.45;100.00;101149.03;1017952;29;20056;-82
2022/12/13 00:43:56;;;;;;;35.82;21.88;;;;;;;-7.56;100.00;101146.28;1023466;28;20044;-82
2022/12/13 00:44:28;;;;;;;38.42;23.44;;;;;;;-7.54;100.00;101152.19;1020188;28;20522;-82
2022/12/13 00:44:59;;;;;;;34.70;22.20;;;;;;;-7.59;100.00;101151.66;1019725;29;20050;-82
2022/12/13 00:45:31;;;;;;;36.42;21.96;;;;;;;-7.56;100.00;101161.81;1019396;29;20047;-82
2022/12/13 00:46:03;;;;;;;39.12;23.74;;;;;;;-7.45;100.00;101151.63;1019717;29;20447;-82
2022/12/13 00:46:35;;;;;;;32.70;22.62;;;;;;;-7.40;100.00;101152.19;1016193;29;20051;-82
2022/12/13 00:47:06;;;;;;;35.66;22.74;;;;;;;-7.38;100.00;101152.09;1020707;28;20123;-82
2022/12/13 00:47:38;;;;;;;32.50;21.06;;;;;;;-7.30;100.00;101142.13;1027466;28;20505;-82
2022/12/13 00:48:09;;;;;;;33.76;21.84;;;;;;;-7.33;100.00;101156.06;1028000;28;20519;-82
2022/12/13 00:48:41;;;;;;;34.78;21.94;;;;;;;-7.30;100.00;101149.88;1025641;28;20134;-82
2022/12/13 00:49:13;;;;;;;33.10;22.28;;;;;;;-7.28;100.00;101148.84;1027196;28;20051;-82
2022/12/13 00:49:44;;;;;;;33.72;23.10;;;;;;;-7.25;100.00;101148.66;1023507;28;20070;-82
2022/12/13 00:50:16;;;;;;;34.22;22.60;;;;;;;-7.25;100.00;101143.50;1016344;29;20055;-82
2022/12/13 00:50:48;;;;;;;33.82;22.66;;;;;;;-7.30;100.00;101150.72;1019334;29;20043;-82
2022/12/13 00:51:21;;;;;;;32.92;22.42;;;;;;;-7.27;100.00;101150.50;1016163;29;20092;-82
2022/12/13 00:51:52;;;;;;;40.88;24.34;;;;;;;-7.31;100.00;101149.03;1016140;29;20111;-82
2022/12/13 00:52:24;;;;;;;32.42;22.14;;;;;;;-7.34;100.00;101149.25;1015338;29;20159;-82
2022/12/13 00:52:55;;;;;;;31.06;22.86;;;;;;;-7.29;100.00;101149.78;1019436;29;20092;-82
2022/12/13 00:53:27;;;;;;;34.92;22.88;;;;;;;-7.21;100.00;101144.13;1015871;29;20164;-82
2022/12/13 00:53:59;;;;;;;39.70;23.22;;;;;;;-7.26;100.00;101149.59;1016292;29;20128;-82
2022/12/13 00:54:31;;;;;;;32.12;21.06;;;;;;;-7.32;100.00;101149.16;1015474;29;20126;-82
2022/12/13 00:55:03;;;;;;;34.80;23.08;;;;;;;-7.35;100.00;101147.56;1014785;29;20562;-82
2022/12/13 00:55:39;;;;;;;37.38;23.64;;;;;;;-7.36;100.00;101143.31;1019896;29;20491;-82
2022/12/13 00:56:16;;;;;;;28.86;19.26;;;;;;;-7.39;100.00;101151.28;1018324;29;20067;-82
2022/12/13 00:56:50;;;;;;;35.36;22.94;;;;;;;-7.44;100.00;101150.69;1017392;29;20067;-82
2022/12/13 00:57:21;;;;;;;34.58;23.22;;;;;;;-7.46;100.00;101149.97;1017587;29;20040;-82
2022/12/13 00:57:53;;;;;;;39.42;22.02;;;;;;;-7.49;100.00;101150.16;1016952;29;20063;-82
2022/12/13 00:58:24;;;;;;;33.50;23.04;;;;;;;-7.55;100.00;101150.53;1020743;29;20444;-82
2022/12/13 00:58:56;;;;;;;37.06;22.98;;;;;;;-7.56;100.00;101141.94;1024272;28;20039;-82
2022/12/13 00:59:28;;;;;;;35.92;24.08;;;;;;;-7.53;100.00;101146.94;1019708;29;20111;-82
2022/12/13 00:59:59;;;;;;;37.76;23.82;;;;;;;-7.50;100.00;101148.50;1023601;29;20144;-82
2022/12/13 01:00:31;;;;;;;39.24;25.34;;;;;;;-7.49;100.00;101144.97;1022924;29;20043;-82
2022/12/13 01:01:04;;;;;;;39.42;23.74;;;;;;;-7.45;100.00;101149.03;1023567;28;20087;-82
2022/12/13 01:01:36;;;;;;;37.74;22.52;;;;;;;-7.43;100.00;101144.59;1023384;29;20063;-82
2022/12/13 01:02:07;;;;;;;36.04;24.68;;;;;;;-7.30;100.00;101144.69;1018821;29;20036;-82
2022/12/13 01:02:42;;;;;;;33.36;23.72;;;;;;;-7.26;100.00;101147.00;1018881;29;20072;-82
2022/12/13 01:03:19;;;;;;;34.92;23.78;;;;;;;-7.35;100.00;101142.41;1017268;29;20448;-82
2022/12/13 01:03:55;;;;;;;39.18;25.16;;;;;;;-7.37;100.00;101144.25;1024879;28;20039;-82
2022/12/13 01:04:27;;;;;;;33.62;23.42;;;;;;;-7.40;100.00;101152.19;1023633;29;20047;-82
2022/12/13 01:04:58;;;;;;;40.42;26.42;;;;;;;-7.35;100.00;101142.41;1019726;29;20043;-82
2022/12/13 01:05:30;;;;;;;33.80;23.58;;;;;;;-7.27;100.00;101145.34;1020981;28;20043;-82
2022/12/13 01:06:26;;;;;;;;;;;;;;;-7.26;100.00;101147.00;1021658;29;20043;-82
2022/12/13 01:06:57;;;;;;;43.92;23.46;;;;;;;-7.26;100.00;101147.00;1022872;29;20085;-82
2022/12/13 01:07:29;;;;;;;40.78;24.04;;;;;;;-7.30;100.00;101149.88;1019911;29;20438;-82
2022/12/13 01:08:01;;;;;;;38.12;23.48;;;;;;;-7.36;100.00;101150.25;1019956;29;20458;-82
2022/12/13 01:08:32;;;;;;;36.40;22.34;;;;;;;-7.41;100.00;101147.94;1023723;28;20046;-82
2022/12/13 01:09:05;;;;;;;37.68;22.54;;;;;;;-7.47;100.00;101145.72;1027694;28;20418;-82
2022/12/13 01:09:38;;;;;;;39.36;23.24;;;;;;;-7.47;100.00;101143.13;1027734;28;20038;-82
2022/12/13 01:10:11;;;;;;;37.92;23.73;;;;;;;-7.48;100.00;101146.66;1026837;28;20098;-82
2022/12/13 01:10:46;;;;;;;38.00;23.46;;;;;;;-7.53;100.00;101151.28;1023554;29;20298;-82
2022/12/13 01:11:18;;;;;;;36.26;23.22;;;;;;;-7.50;100.00;101148.50;1023683;28;20142;-82
2022/12/13 01:11:49;;;;;;;40.48;23.62;;;;;;;-7.52;100.00;101152.94;1027484;28;20054;-82
2022/12/13 01:12:21;;;;;;;33.48;21.94;;;;;;;-7.39;100.00;101146.09;1020178;29;20063;-82
2022/12/13 01:12:54;;;;;;;39.12;22.90;;;;;;;-7.32;100.00;101147.38;1019865;29;20036;-82
2022/12/13 01:13:25;;;;;;;35.10;21.44;;;;;;;-7.26;100.00;101154.75;1019231;29;20046;-82
2022/12/13 01:13:57;;;;;;;33.88;22.98;;;;;;;-7.26;100.00;101146.16;1015678;29;20048;-82
2022/12/13 01:14:29;;;;;;;35.68;22.58;;;;;;;-7.23;100.00;101148.56;1022194;29;20051;-82
2022/12/13 01:15:00;;;;;;;38.56;24.40;;;;;;;-7.25;100.00;101153.84;1023558;29;20070;-82
2022/12/13 01:15:31;;;;;;;36.82;23.78;;;;;;;-7.31;100.00;101149.03;1019860;29;20075;-82
2022/12/13 01:16:05;;;;;;;41.88;24.56;;;;;;;-7.28;100.00;101154.03;1019787;29;20705;-82
2022/12/13 01:16:36;;;;;;;37.94;23.28;;;;;;;-7.24;100.00;101150.31;1015682;29;20048;-82
2022/12/13 01:17:08;;;;;;;33.76;22.16;;;;;;;-7.25;100.00;101148.66;1015389;29;20079;-82
2022/12/13 01:17:40;;;;;;;34.38;21.56;;;;;;;-7.18;100.00;101159.47;1012920;29;20111;-81
2022/12/13 01:18:13;;;;;;;38.00;22.24;;;;;;;-7.22;100.00;101151.06;1019668;29;20142;-82
2022/12/13 01:18:45;;;;;;;30.26;23.74;;;;;;;-7.26;100.00;101152.19;1016583;29;20040;-82
2022/12/13 01:19:17;;;;;;;34.36;22.68;;;;;;;-7.22;100.00;101152.81;1019165;29;20048;-82
2022/12/13 01:19:48;;;;;;;35.74;23.30;;;;;;;-7.40;100.00;101153.94;1019374;29;20253;-82
2022/12/13 01:20:20;;;;;;;41.14;22.08;;;;;;;-7.44;100.00;101144.69;1020259;29;20526;-82
2022/12/13 01:21:21;;;;;;;35.28;22.62;;;;;;;-7.53;100.00;101152.09;1023611;28;20070;-82
2022/12/13 01:21:54;;;;;;;38.22;23.42;;;;;;;-7.57;100.00;101153.22;1027493;28;20051;-82
2022/12/13 01:22:26;;;;;;;30.88;21.42;;;;;;;-7.53;100.00;101153.84;1027853;28;20540;-82
2022/12/13 01:22:57;;;;;;;37.58;22.70;;;;;;;-7.57;100.00;101149.78;1030879;28;20121;-82
2022/12/13 01:23:29;;;;;;;40.02;21.76;;;;;;;-7.66;100.00;101143.44;1027444;28;20607;-82
2022/12/13 01:24:02;;;;;;;36.40;24.72;;;;;;;-7.64;100.00;101151.09;1025214;28;20043;-82
2022/12/13 01:24:34;;;;;;;32.80;22.38;;;;;;;-7.63;100.00;101150.16;1023443;29;20505;-82
2022/12/13 01:25:06;;;;;;;36.10;22.14;;;;;;;-7.64;100.00;101148.50;1019787;29;20055;-82
2022/12/13 01:25:37;;;;;;;31.82;21.26;;;;;;;-7.65;100.00;101152.03;1015753;29;20068;-82
2022/12/13 01:26:12;;;;;;;35.14;24.20;;;;;;;-7.59;100.00;101147.31;1011699;29;20101;-82
2022/12/13 01:26:43;;;;;;;35.00;23.90;;;;;;;-7.63;100.00;101152.75;1012734;29;20048;-82
2022/12/13 01:27:15;;;;;;;35.94;22.92;;;;;;;-7.63;100.00;101155.34;1020538;29;20068;-82
2022/12/13 01:27:46;;;;;;;36.92;21.90;;;;;;;-7.61;100.00;101156.91;1021126;29;20043;-82
2022/12/13 01:28:18;;;;;;;36.12;24.20;;;;;;;-7.62;100.00;101154.41;1023560;28;20155;-82
2022/12/13 01:28:50;;;;;;;37.38;24.08;;;;;;;-7.69;100.00;101159.09;1023983;28;20057;-82
2022/12/13 01:29:23;;;;;;;36.80;22.20;;;;;;;-7.67;100.00;101159.00;1022641;28;20522;-82
2022/12/13 01:29:56;;;;;;;47.42;26.32;;;;;;;-7.72;100.00;101153.28;1023075;29;20114;-82
2022/12/13 01:30:28;;;;;;;38.60;24.64;;;;;;;-7.72;100.00;101153.28;1023594;28;20051;-82
2022/12/13 01:31:04;;;;;;;34.74;22.34;;;;;;;-7.71;100.00;101155.78;1024061;28;20043;-82
2022/12/13 01:31:40;;;;;;;42.50;23.34;;;;;;;-7.72;100.00;101158.47;1023674;29;20067;-82
2022/12/13 01:32:11;;;;;;;32.92;20.92;;;;;;;-7.72;100.00;101161.03;1019080;29;20541;-82
2022/12/13 01:32:43;;;;;;;35.34;21.50;;;;;;;-7.75;100.00;101156.88;1016981;29;20063;-82
2022/12/13 01:33:15;;;;;;;33.62;22.32;;;;;;;-7.71;100.00;101154.94;1016534;29;20246;-82
2022/12/13 01:33:47;;;;;;;35.88;23.88;;;;;;;-7.71;100.00;101152.38;1015752;29;20122;-82
2022/12/13 01:34:20;;;;;;;35.36;23.12;;;;;;;-7.63;100.00;101150.16;1019890;29;20414;-82
2022/12/13 01:34:57;;;;;;;35.30;22.62;;;;;;;-7.63;100.00;101157.94;1024558;28;20040;-82
2022/12/13 01:35:28;;;;;;;34.34;22.98;;;;;;;-7.65;100.00;101152.84;1028426;28;20065;-82
2022/12/13 01:36:02;;;;;;;38.40;23.00;;;;;;;-7.64;100.00;101151.94;1023444;28;20102;-82
2022/12/13 01:36:33;;;;;;;37.34;24.20;;;;;;;-7.60;100.00;101152.56;1018906;29;20126;-82
2022/12/13 01:37:08;;;;;;;36.60;22.26;;;;;;;-7.54;100.00;101149.59;1019385;29;20047;-81
2022/12/13 01:37:40;;;;;;;33.60;23.06;;;;;;;-7.48;100.00;101147.47;1020193;29;20422;-82
2022/12/13 01:38:11;;;;;;;40.00;24.30;;;;;;;-7.41;100.00;101155.69;1024489;28;20047;-82
2022/12/13 01:38:46;;;;;;;32.18;21.64;;;;;;;-7.31;100.00;101149.03;1028517;28;20046;-82
2022/12/13 01:39:19;;;;;;;42.40;22.50;;;;;;;-7.25;100.00;101146.06;1027090;28;20039;-82
2022/12/13 01:39:57;;;;;;;31.36;21.44;;;;;;;-7.20;100.00;101145.78;1023049;29;20095;-82
2022/12/13 01:40:28;;;;;;;40.32;24.56;;;;;;;-7.29;100.00;101149.78;1019294;29;20418;-82
2022/12/13 01:41:01;;;;;;;35.44;23.74;;;;;;;-7.50;100.00;101145.91;1015170;29;20127;-82
2022/12/13 01:41:49;;;;;;;38.56;23.08;;;;;;;-7.56;100.00;101157.47;1015107;29;20048;-82
2022/12/13 01:42:21;;;;;;;37.56;23.34;;;;;;;-7.62;100.00;101154.41;1019937;29;20066;-81
2022/12/13 01:42:52;;;;;;;38.18;23.56;;;;;;;-7.61;100.00;101148.31;1026295;28;20522;-82
2022/12/13 01:43:49;;;;;;;39.98;23.82;;;;;;;-7.65;100.00;101155.44;1023739;29;20453;-82
2022/12/13 01:44:56;;;;;;;33.45;20.98;;;;;;;-7.69;100.00;101148.75;1015103;29;20139;-82
2022/12/13 01:45:27;;;;;;;39.16;23.80;;;;;;;-7.71;100.00;101152.38;1022965;29;20309;-82
2022/12/13 01:45:59;;;;;;;39.26;23.26;;;;;;;-7.69;100.00;101153.09;1025531;28;20075;-82
2022/12/13 01:46:34;;;;;;;37.70;22.90;;;;;;;-7.70;100.00;101154.03;1031192;28;20039;-82
2022/12/13 01:47:06;;;;;;;36.50;23.26;;;;;;;-7.64;100.00;101151.09;1022421;29;20409;-82
2022/12/13 01:47:48;;;;;;;43.44;24.34;;;;;;;-7.66;100.00;101147.78;1022187;29;20081;-82
2022/12/13 01:48:28;;;;;;;45.76;25.46;;;;;;;-7.70;100.00;101151.44;1022615;29;20051;-82
2022/12/13 01:49:03;;;;;;;36.67;24.20;;;;;;;-7.73;100.00;101149.03;1016707;29;20179;-82
2022/12/13 01:49:34;;;;;;;37.30;23.56;;;;;;;-7.72;100.00;101148.13;1022410;29;20111;-82
2022/12/13 01:50:13;;;;;;;38.56;24.60;;;;;;;-7.72;100.00;101142.94;1021276;29;20569;-82
2022/12/13 01:50:47;;;;;;;35.70;23.28;;;;;;;-7.69;100.00;101143.59;1021089;29;20078;-82
2022/12/13 01:51:43;;;;;;;37.60;23.22;;;;;;;-7.70;100.00;101141.09;1015534;29;20104;-82
2022/12/13 01:52:15;;;;;;;33.62;20.76;;;;;;;-7.72;100.00;101145.53;1018211;29;20616;-82
2022/12/13 01:52:47;;;;;;;38.56;22.92;;;;;;;-7.68;100.00;101144.41;1019481;29;20039;-82
2022/12/13 01:53:22;;;;;;;35.78;23.50;;;;;;;-7.72;100.00;101148.13;1015462;29;20510;-82
2022/12/13 01:53:56;;;;;;;39.52;23.40;;;;;;;-7.74;100.00;101147.38;1015311;29;20893;-82
2022/12/13 01:54:34;;;;;;;37.62;22.90;;;;;;;-7.76;100.00;101147.47;1019527;29;20127;-82
2022/12/13 01:55:07;;;;;;;43.30;23.96;;;;;;;-7.79;100.00;101142.47;1023301;29;20039;-82
2022/12/13 01:55:39;;;;;;;31.36;21.02;;;;;;;-7.83;100.00;101147.00;1019667;29;20529;-82
2022/12/13 01:56:17;;;;;;;37.18;22.74;;;;;;;-7.92;100.00;101147.56;1021238;29;20044;-82
2022/12/13 01:56:51;;;;;;;34.18;22.16;;;;;;;-7.88;100.00;101143.88;1018770;29;20052;-82
2022/12/13 01:57:32;;;;;;;37.38;22.10;;;;;;;-7.88;100.00;101141.28;1018211;29;20036;-82
2022/12/13 01:58:04;;;;;;;31.40;22.44;;;;;;;-7.89;100.00;101147.38;1019153;29;20482;-82
2022/12/13 01:58:37;;;;;;;33.92;23.34;;;;;;;-7.89;100.00;101146.53;1017403;29;20044;-82
2022/12/13 01:59:10;;;;;;;35.88;23.10;;;;;;;-7.90;100.00;101145.72;1015451;29;20096;-82
2022/12/13 01:59:43;;;;;;;41.16;23.04;;;;;;;-7.92;100.00;101141.56;1011593;29;20045;-82
2022/12/13 02:00:15;;;;;;;37.30;22.94;;;;;;;-7.92;100.00;101141.56;1013242;29;20109;-82
2022/12/13 02:00:47;;;;;;;34.86;22.76;;;;;;;-7.93;100.00;101145.91;1015710;29;20333;-82
2022/12/13 02:01:19;;;;;;;36.80;23.42;;;;;;;-7.94;100.00;101143.38;1016865;29;20115;-82
2022/12/13 02:01:50;;;;;;;35.32;22.72;;;;;;;-7.94;100.00;101145.97;1017969;29;20047;-82
2022/12/13 02:02:31;;;;;;;38.72;23.42;;;;;;;-7.95;100.00;101145.13;1019472;29;20578;-82
2022/12/13 02:03:03;;;;;;;32.76;22.12;;;;;;;-7.96;100.00;101140.88;1020886;29;20159;-82
2022/12/13 02:03:34;;;;;;;34.86;22.62;;;;;;;-7.97;100.00;101139.22;1015328;29;20233;-83
2022/12/13 02:04:07;;;;;;;36.90;24.40;;;;;;;-7.98;100.00;101140.16;1017063;29;20573;-82
2022/12/13 02:04:53;;;;;;;37.26;24.68;;;;;;;-7.99;100.00;101142.81;1014846;29;20036;-81
2022/12/13 02:05:31;;;;;;;43.68;24.26;;;;;;;-7.98;100.00;101145.31;1016411;29;20413;-82
2022/12/13 02:06:15;;;;;;;38.34;22.82;;;;;;;-8.00;100.00;101144.56;1022372;29;20086;-82
2022/12/13 02:06:48;;;;;;;42.00;23.18;;;;;;;-7.96;100.00;101151.22;1026979;28;20034;-82
2022/12/13 02:07:23;;;;;;;34.00;23.52;;;;;;;-7.92;100.00;101142.41;1023271;29;20391;-82
2022/12/13 02:07:56;;;;;;;38.66;23.18;;;;;;;-7.86;100.00;101147.19;1019648;29;20510;-82
2022/12/13 02:08:28;;;;;;;36.50;22.80;;;;;;;-7.83;100.00;101141.84;1015572;29;20423;-82
2022/12/13 02:09:03;;;;;;;37.06;23.04;;;;;;;-7.85;100.00;101142.84;1016595;29;20048;-82
2022/12/13 02:09:34;;;;;;;32.30;22.14;;;;;;;-7.86;100.00;101144.59;1016058;29;20123;-82
2022/12/13 02:10:07;;;;;;;34.26;23.40;;;;;;;-7.82;100.00;101147.84;1016225;29;20055;-82
2022/12/13 02:10:39;;;;;;;32.64;22.34;;;;;;;-7.71;100.00;101147.19;1012779;29;20063;-82
2022/12/13 02:11:11;;;;;;;36.64;22.66;;;;;;;-7.70;100.00;101146.25;1011620;29;20052;-82
2022/12/13 02:11:43;;;;;;;33.32;22.44;;;;;;;-7.78;100.00;101144.97;1012000;29;20089;-82
2022/12/13 02:12:15;;;;;;;35.48;23.24;;;;;;;-7.79;100.00;101145.06;1011746;29;20403;-82
2022/12/13 02:12:47;;;;;;;38.13;24.73;;;;;;;-7.83;100.00;101147.00;1015845;29;20131;-82
2022/12/13 02:13:18;;;;;;;37.82;21.94;;;;;;;-7.82;100.00;101143.50;1022920;29;20780;-82
2022/12/13 02:13:50;;;;;;;40.88;23.74;;;;;;;-7.82;100.00;101145.25;1019380;29;20086;-82
2022/12/13 02:14:21;;;;;;;35.04;23.62;;;;;;;-7.82;100.00;101145.25;1018866;29;20189;-82
2022/12/13 02:14:53;;;;;;;35.44;24.02;;;;;;;-7.82;100.00;101140.09;1015828;29;20384;-82
2022/12/13 02:15:54;;;;;;;31.86;22.38;;;;;;;-7.86;100.00;101142.03;1020206;29;20055;-82
2022/12/13 02:16:33;;;;;;;42.06;23.14;;;;;;;-7.85;100.00;101148.84;1022578;29;20047;-82
2022/12/13 02:17:33;;;;;;;37.22;24.18;;;;;;;-7.83;100.00;101151.34;1019631;28;20098;-82
2022/12/13 02:18:20;;;;;;;36.08;23.24;;;;;;;-7.91;100.00;101144.06;1022806;29;20078;-82
2022/12/13 02:19:27;;;;;;;42.06;25.18;;;;;;;-7.91;100.00;101149.22;1025422;28;20499;-81
2022/12/13 02:20:12;;;;;;;32.70;21.20;;;;;;;-7.89;100.00;101147.38;1022069;29;20047;-82
2022/12/13 02:21:31;;;;;;;38.24;21.32;;;;;;;-7.86;100.00;101144.59;1023024;29;20103;-82
2022/12/13 02:22:29;;;;;;;34.06;21.18;;;;;;;-7.79;100.00;101145.91;1026345;28;20062;-82
2022/12/13 02:23:01;;;;;;;38.66;21.50;;;;;;;-7.72;100.00;101141.19;1027458;28;20046;-82
2022/12/13 02:23:51;;;;;;;46.08;25.22;;;;;;;-7.69;100.00;101147.94;1027610;28;20150;-82
2022/12/13 02:24:48;;;;;;;40.10;24.63;;;;;;;-7.67;100.00;101151.25;1027436;28;20053;-82
2022/12/13 02:25:32;;;;;;;50.94;22.10;;;;;;;-7.55;100.00;101156.53;1027636;28;20112;-82
2022/12/13 02:26:30;;;;;;;38.40;23.28;;;;;;;-7.55;100.00;101153.94;1030492;28;20568;-82
2022/12/13 02:27:29;;;;;;;42.46;22.56;;;;;;;-7.49;100.00;101150.16;1023149;29;20047;-84
2022/12/13 02:28:28;;;;;;;33.92;21.40;;;;;;;-7.48;100.00;101157.00;1018251;29;20039;-82
2022/12/13 02:29:23;;;;;;;37.30;21.88;;;;;;;-7.49;100.00;101157.91;1023343;29;20079;-82
2022/12/13 02:30:32;;;;;;;33.40;20.78;;;;;;;-7.47;100.00;101158.66;1024193;28;20047;-82
2022/12/13 02:31:09;;;;;;;34.44;21.06;;;;;;;-7.49;100.00;101161.34;1025641;28;21127;-82
2022/12/13 02:31:54;;;;;;;35.90;19.74;;;;;;;-7.53;100.00;101164.19;1017266;29;20438;-82
2022/12/13 02:32:54;;;;;;;29.38;17.04;;;;;;;-7.45;100.00;101161.97;1015278;29;20102;-82
2022/12/13 02:33:34;;;;;;;33.92;16.94;;;;;;;-7.43;100.00;101160.13;1020593;28;20160;-82
2022/12/13 02:34:22;;;;;;;34.67;18.00;;;;;;;-7.44;100.00;101162.81;1024265;28;20180;-82
2022/12/13 02:35:06;;;;;;;27.28;16.92;;;;;;;-7.48;100.00;101163.00;1022904;28;20569;-82
2022/12/13 02:35:46;;;;;;;28.04;17.76;;;;;;;-7.56;100.00;101162.63;1019387;29;20447;-82
2022/12/13 02:36:28;;;;;;;31.34;18.86;;;;;;;-7.69;100.00;101158.28;1019288;29;20080;-82
2022/12/13 02:37:14;;;;;;;29.46;17.86;;;;;;;-7.79;100.00;101158.81;1023280;29;20427;-82
2022/12/13 02:37:58;;;;;;;33.84;17.82;;;;;;;-7.66;100.00;101153.78;1023621;29;20450;-82
2022/12/13 02:38:41;;;;;;;30.25;18.25;;;;;;;-7.43;100.00;101154.13;1018814;29;20124;-82